Time;durP1;ratioP1;P1;durP2;ratioP2;P2;SDS_P1;SDS_P2;PMS_P1;PMS_P2;Temp;Humidity;BMP_temperature;BMP_pressure;BME280_temperature;BME280_humidity;BME280_pressure;Samples;Min_cycle;Max_cycle;Signal;HPM_P1;HPM_P2
2024/04/06 00:01:59;;;;;;;0.80;0.80;;;;;;;13.06;84.10;99713.44;5093534;28;20052;-66
2024/04/06 00:04:25;;;;;;;0.50;0.50;;;;;;;13.10;84.12;99704.84;5076966;28;20090;-66
2024/04/06 00:06:53;;;;;;;4.95;1.45;;;;;;;13.11;84.05;99711.66;5093790;28;20486;-66
2024/04/06 00:09:21;;;;;;;1.60;0.98;;;;;;;13.07;84.32;99710.00;5076703;28;20532;-66
2024/04/06 00:11:49;;;;;;;1.33;1.10;;;;;;;13.02;84.36;99710.88;5093710;28;20044;-66
2024/04/06 00:14:17;;;;;;;0.80;0.80;;;;;;;13.07;84.38;99712.56;5076709;28;20097;-66
2024/04/06 00:16:45;;;;;;;0.82;0.82;;;;;;;13.10;84.79;99707.41;5093666;28;20048;-66
2024/04/06 00:19:12;;;;;;;0.30;0.30;;;;;;;13.10;84.75;99720.22;5092902;28;20434;-66
2024/04/06 00:21:39;;;;;;;0.60;0.60;;;;;;;13.12;84.54;99728.75;5093278;28;20052;-66
2024/04/06 00:24:06;;;;;;;2.33;0.77;;;;;;;13.10;84.70;99725.34;5076712;28;20432;-66
2024/04/06 00:26:35;;;;;;;0.73;0.73;;;;;;;13.14;85.15;99727.03;5076555;28;20040;-66
2024/04/06 00:29:02;;;;;;;0.45;0.45;;;;;;;13.15;84.81;99718.44;5093051;28;20044;-66
2024/04/06 00:31:29;;;;;;;1.23;1.13;;;;;;;13.16;84.90;99725.28;5076306;28;20048;-66
2024/04/06 00:34:01;;;;;;;0.65;0.65;;;;;;;13.18;84.71;99732.94;5093385;28;20485;-66
2024/04/06 00:36:29;;;;;;;0.88;0.85;;;;;;;13.23;84.81;99726.91;5093330;28;20509;-66
2024/04/06 00:38:56;;;;;;;1.67;1.10;;;;;;;13.27;84.77;99731.13;5092985;28;20032;-66
2024/04/06 00:41:24;;;;;;;0.77;0.73;;;;;;;13.29;84.58;99731.97;5092967;28;20082;-66
2024/04/06 00:43:52;;;;;;;0.73;0.55;;;;;;;13.31;84.43;99735.38;5076361;28;20083;-66
2024/04/06 00:46:20;;;;;;;1.10;0.85;;;;;;;13.22;84.46;99725.22;5093019;28;20059;-66
2024/04/06 00:48:46;;;;;;;1.33;1.23;;;;;;;13.30;84.27;99731.13;5093065;28;20040;-66
2024/04/06 00:51:14;;;;;;;0.60;0.60;;;;;;;13.28;84.32;99730.28;5093090;28;20040;-66
2024/04/06 00:53:41;;;;;;;3.67;2.00;;;;;;;13.26;84.08;99726.91;5092972;28;20406;-66
2024/04/06 00:56:09;;;;;;;0.70;0.70;;;;;;;13.32;84.47;99737.06;5075956;28;20093;-67
2024/04/06 00:58:36;;;;;;;0.60;0.60;;;;;;;13.37;84.29;99735.31;5092666;28;20081;-66
2024/04/06 01:01:05;;;;;;;2.67;1.80;;;;;;;13.34;84.28;99737.88;5093024;28;20081;-66
2024/04/06 01:03:32;;;;;;;0.65;0.65;;;;;;;13.32;84.12;99737.06;5076238;28;20047;-66
2024/04/06 01:06:00;;;;;;;0.80;0.80;;;;;;;13.33;84.11;99733.66;5093348;28;20382;-66
2024/04/06 01:08:27;;;;;;;2.45;2.25;;;;;;;13.29;84.54;99720.88;5092772;28;20040;-66
2024/04/06 01:10:54;;;;;;;0.65;0.65;;;;;;;13.35;84.16;99731.91;5092833;28;20040;-66
2024/04/06 01:13:21;;;;;;;0.60;0.60;;;;;;;13.30;84.13;99725.97;5093079;28;20040;-66
2024/04/06 01:15:49;;;;;;;1.10;1.00;;;;;;;13.27;84.38;99732.84;5092459;28;20040;-66
2024/04/06 01:18:17;;;;;;;1.00;0.90;;;;;;;13.26;84.38;99737.16;5075703;28;20529;-66
2024/04/06 01:20:47;;;;;;;0.65;0.65;;;;;;;13.27;84.67;99728.56;5092260;28;20157;-66
2024/04/06 01:23:13;;;;;;;0.70;0.70;;;;;;;13.23;84.71;99711.53;5092648;28;20044;-66
2024/04/06 01:25:43;;;;;;;0.50;0.50;;;;;;;13.28;84.63;99720.03;5075792;28;20048;-66
2024/04/06 01:28:10;;;;;;;1.05;0.65;;;;;;;13.28;85.04;99709.78;5092632;28;20044;-66
2024/04/06 01:30:38;;;;;;;0.40;0.40;;;;;;;13.30;85.17;99717.44;5074850;28;20383;-66
2024/04/06 01:33:05;;;;;;;1.05;0.95;;;;;;;13.27;85.01;99723.44;5095901;28;20458;-66
2024/04/06 01:35:32;;;;;;;0.90;0.80;;;;;;;13.25;85.27;99725.19;5096784;28;20029;-66
2024/04/06 01:37:59;;;;;;;0.63;0.63;;;;;;;13.22;85.08;99727.78;5096638;28;20040;-66
2024/04/06 01:40:27;;;;;;;0.75;0.70;;;;;;;13.22;85.24;99725.22;5096163;28;20146;-66
2024/04/06 01:42:55;;;;;;;1.48;1.17;;;;;;;13.23;85.07;99721.78;5079703;28;20044;-66
2024/04/06 01:45:23;;;;;;;0.73;0.73;;;;;;;13.25;85.04;99727.75;5096586;28;20036;-67
2024/04/06 01:47:50;;;;;;;0.63;0.63;;;;;;;13.27;85.47;99718.31;5096281;28;20510;-66
2024/04/06 01:50:18;;;;;;;1.55;1.20;;;;;;;13.29;85.25;99721.72;5096411;28;20044;-66
2024/04/06 01:52:45;;;;;;;1.73;0.90;;;;;;;13.28;85.31;99720.03;5096481;28;20032;-66
2024/04/06 01:55:12;;;;;;;0.50;0.50;;;;;;;13.33;85.25;99723.41;5079357;28;20040;-66
2024/04/06 01:57:39;;;;;;;1.23;1.13;;;;;;;13.33;85.00;99718.25;5096355;28;20040;-66
2024/04/06 02:00:09;;;;;;;0.80;0.80;;;;;;;13.30;85.26;99723.41;5096236;28;20047;-66
2024/04/06 02:02:39;;;;;;;0.60;0.60;;;;;;;13.32;85.07;99720.81;5096307;28;20047;-66
2024/04/06 02:05:07;;;;;;;7.38;2.05;;;;;;;13.30;84.79;99723.41;5095911;28;20494;-66
2024/04/06 02:07:34;;;;;;;1.88;1.08;;;;;;;13.33;85.10;99741.34;5096418;28;20135;-66
2024/04/06 02:10:01;;;;;;;0.77;0.77;;;;;;;13.33;85.03;99749.03;5096106;28;20115;-66
2024/04/06 02:12:28;;;;;;;1.25;0.80;;;;;;;13.32;84.94;99751.59;5095720;28;20036;-66
2024/04/06 02:14:56;;;;;;;1.23;1.13;;;;;;;13.31;85.10;99755.91;5095696;28;20044;-66
2024/04/06 02:17:24;;;;;;;0.68;0.68;;;;;;;13.27;84.80;99759.34;5078983;28;20043;-66
2024/04/06 02:19:52;;;;;;;0.60;0.60;;;;;;;13.27;84.82;99764.47;5095302;28;20052;-66
2024/04/06 02:22:19;;;;;;;1.08;0.98;;;;;;;13.27;84.77;99759.34;5095820;28;20039;-66
2024/04/06 02:24:46;;;;;;;0.63;0.63;;;;;;;13.28;85.26;99755.91;5095867;28;20032;-66
2024/04/06 02:27:13;;;;;;;0.63;0.63;;;;;;;13.28;85.08;99755.91;5096066;28;20122;-66
2024/04/06 02:29:41;;;;;;;0.77;0.77;;;;;;;13.30;85.29;99754.19;5078602;28;20040;-65
2024/04/06 02:32:08;;;;;;;0.60;0.60;;;;;;;13.31;85.07;99755.03;5062319;28;20529;-66
2024/04/06 02:34:38;;;;;;;1.15;1.05;;;;;;;13.27;85.10;99751.63;5095626;28;20555;-66
2024/04/06 02:37:04;;;;;;;1.50;0.82;;;;;;;13.23;84.77;99752.56;5095313;28;20040;-66
2024/04/06 02:39:32;;;;;;;1.20;1.10;;;;;;;13.20;84.92;99757.69;5078550;28;20037;-66
2024/04/06 02:41:59;;;;;;;0.45;0.45;;;;;;;13.26;85.04;99757.66;5095023;28;20032;-66
2024/04/06 02:44:26;;;;;;;1.95;1.02;;;;;;;13.27;84.86;99764.47;5095189;28;20070;-66
2024/04/06 02:46:53;;;;;;;1.80;0.70;;;;;;;13.28;85.12;99760.19;5095163;28;20390;-66
2024/04/06 02:49:21;;;;;;;0.65;0.65;;;;;;;13.24;84.99;99754.25;5078445;28;20055;-66
2024/04/06 02:51:49;;;;;;;1.15;1.05;;;;;;;13.28;84.82;99763.59;5095247;28;20047;-66
2024/04/06 02:54:16;;;;;;;0.73;0.60;;;;;;;13.28;85.38;99761.03;5094974;28;20406;-66
2024/04/06 02:56:43;;;;;;;1.65;0.90;;;;;;;13.16;84.91;99743.22;5095242;28;20047;-66
2024/04/06 02:59:11;;;;;;;0.50;0.50;;;;;;;13.26;85.32;99761.94;5078324;28;20047;-66
2024/04/06 03:01:38;;;;;;;0.77;0.75;;;;;;;13.22;85.50;99763.66;5094659;28;20028;-66
2024/04/06 03:04:06;;;;;;;0.47;0.47;;;;;;;13.17;85.62;99762.03;5095110;28;20489;-66
2024/04/06 03:06:33;;;;;;;0.90;0.63;;;;;;;13.13;85.51;99765.47;5078239;28;20039;-66
2024/04/06 03:09:03;;;;;;;2.30;1.58;;;;;;;13.10;85.71;99766.34;5094922;28;20085;-66
2024/04/06 03:11:30;;;;;;;1.25;1.15;;;;;;;13.11;86.13;99751.81;5094798;28;20048;-66
2024/04/06 03:13:58;;;;;;;0.52;0.52;;;;;;;13.09;85.79;99754.41;5094842;28;20383;-66
2024/04/06 03:16:24;;;;;;;0.70;0.70;;;;;;;13.12;86.22;99754.38;5078190;28;20521;-67
2024/04/06 03:18:52;;;;;;;0.80;0.73;;;;;;;13.14;85.89;99751.78;5094365;28;20063;-66
2024/04/06 03:21:20;;;;;;;2.30;1.25;;;;;;;13.13;86.24;99743.25;5094333;28;20036;-66
2024/04/06 03:23:48;;;;;;;0.60;0.60;;;;;;;13.10;86.20;99740.72;5094692;28;20089;-66
2024/04/06 03:26:16;;;;;;;0.70;0.70;;;;;;;13.10;86.23;99735.59;5094644;28;20047;-66
2024/04/06 03:28:44;;;;;;;1.48;1.15;;;;;;;13.10;86.42;99735.59;5094674;28;20040;-66
2024/04/06 03:31:10;;;;;;;0.50;0.50;;;;;;;13.10;86.15;99734.75;5077769;28;20040;-66
2024/04/06 03:33:38;;;;;;;0.50;0.50;;;;;;;13.10;86.34;99732.19;5094450;28;20089;-66
2024/04/06 03:36:05;;;;;;;1.25;1.15;;;;;;;13.11;86.78;99728.75;5094439;28;20036;-66
2024/04/06 03:38:33;;;;;;;0.50;0.50;;;;;;;13.12;86.58;99733.88;5077337;28;20044;-66
2024/04/06 03:41:01;;;;;;;0.90;0.90;;;;;;;13.11;86.32;99734.72;5094331;28;20144;-66
2024/04/06 03:43:30;;;;;;;0.65;0.65;;;;;;;13.12;86.42;99739.00;5077384;28;20039;-66
2024/04/06 03:45:58;;;;;;;0.52;0.52;;;;;;;13.13;86.27;99730.44;5094220;28;20044;-66
2024/04/06 03:48:25;;;;;;;0.40;0.40;;;;;;;13.14;86.44;99737.28;5094199;28;20093;-67
2024/04/06 03:50:53;;;;;;;0.50;0.50;;;;;;;13.16;86.43;99740.66;5093803;28;20040;-66
2024/04/06 03:53:29;;;;;;;0.70;0.70;;;;;;;13.14;86.71;99750.09;5094004;28;20047;-66
2024/04/06 03:55:56;;;;;;;1.10;1.00;;;;;;;13.16;86.75;99750.91;5059262;28;20051;-66
2024/04/06 03:58:23;;;;;;;0.85;0.75;;;;;;;13.14;86.52;99760.34;5093919;28;20501;-66
2024/04/06 04:00:52;;;;;;;0.73;0.70;;;;;;;13.16;86.50;99765.44;5102341;28;20039;-66
2024/04/06 04:03:19;;;;;;;3.40;1.67;;;;;;;13.16;86.64;99765.44;5097306;28;20048;-65
2024/04/06 04:05:47;;;;;;;0.70;0.70;;;;;;;13.12;86.48;99769.75;5114211;28;20031;-66
2024/04/06 04:08:14;;;;;;;0.93;0.90;;;;;;;13.11;86.67;99762.91;5114095;28;20043;-66
2024/04/06 04:10:43;;;;;;;1.52;1.08;;;;;;;13.11;86.52;99762.91;5114193;28;20078;-66
2024/04/06 04:13:09;;;;;;;1.75;1.02;;;;;;;13.09;86.68;99774.91;5080098;28;20043;-67
2024/04/06 04:15:38;;;;;;;0.40;0.40;;;;;;;13.05;86.39;99778.31;5114370;28;20089;-66
2024/04/06 04:18:07;;;;;;;0.50;0.50;;;;;;;13.05;86.37;99788.56;5113704;28;20043;-66
2024/04/06 04:20:35;;;;;;;;;;;;;;;13.03;86.44;99789.47;5114040;28;20059;-66
2024/04/06 04:23:02;;;;;;;0.60;0.60;;;;;;;13.00;86.47;99800.59;5113568;28;19972;-66
2024/04/06 04:25:30;;;;;;;0.65;0.65;;;;;;;13.00;86.25;99794.59;5113889;28;20039;-66
2024/04/06 04:27:58;;;;;;;0.57;0.57;;;;;;;12.98;86.66;99794.59;5113320;28;20040;-66
2024/04/06 04:30:26;;;;;;;1.40;1.02;;;;;;;12.99;86.22;99793.75;5114085;28;20040;-66
2024/04/06 04:32:53;;;;;;;0.50;0.50;;;;;;;12.79;86.58;99757.19;5114007;28;20044;-66
2024/04/06 04:35:22;;;;;;;1.15;1.02;;;;;;;12.96;86.58;99783.50;5113359;28;20051;-65
2024/04/06 04:37:48;;;;;;;0.50;0.50;;;;;;;12.95;86.54;99792.09;5113980;28;20526;-66
2024/04/06 04:40:16;;;;;;;1.60;0.70;;;;;;;12.91;86.61;99785.25;5113572;28;20047;-66
2024/04/06 04:42:43;;;;;;;0.88;0.80;;;;;;;12.86;86.55;99784.44;5113643;28;20043;-66
2024/04/06 04:45:12;;;;;;;0.80;0.70;;;;;;;12.83;86.69;99776.81;5096402;28;20501;-66
2024/04/06 04:47:40;;;;;;;;;;;;;;;12.79;86.94;99785.38;5114218;28;20178;-66
2024/04/06 04:50:10;;;;;;;0.65;0.65;;;;;;;12.74;86.89;99772.59;5113335;28;19919;-65
2024/04/06 04:52:38;;;;;;;0.70;0.70;;;;;;;12.78;87.09;99779.41;5113471;28;20038;-66
2024/04/06 04:55:06;;;;;;;0.73;0.73;;;;;;;12.80;87.24;99787.09;5113290;28;20374;-66
2024/04/06 04:57:33;;;;;;;0.50;0.50;;;;;;;12.83;87.15;99774.25;5096384;28;20051;-66
2024/04/06 05:00:02;;;;;;;0.77;0.77;;;;;;;12.84;87.47;99768.25;5096309;28;20040;-66
2024/04/06 05:02:29;;;;;;;0.75;0.70;;;;;;;12.87;87.62;99763.09;5113062;28;20414;-66
2024/04/06 05:04:56;;;;;;;0.63;0.63;;;;;;;12.93;87.79;99770.75;5113403;28;20047;-66
2024/04/06 05:07:23;;;;;;;1.88;1.50;;;;;;;12.94;87.83;99764.75;5112991;28;20087;-66
2024/04/06 05:09:53;;;;;;;0.63;0.63;;;;;;;13.00;87.86;99764.72;5112985;28;20043;-66
2024/04/06 05:12:20;;;;;;;1.05;0.98;;;;;;;13.06;87.60;99763.81;5113172;28;20055;-66
2024/04/06 05:14:47;;;;;;;3.15;1.17;;;;;;;13.06;87.61;99772.38;5096152;28;20031;-66
2024/04/06 05:17:14;;;;;;;0.85;0.70;;;;;;;13.11;87.88;99782.56;5113104;28;20047;-66
2024/04/06 05:19:42;;;;;;;1.60;0.95;;;;;;;13.16;87.57;99776.53;5112551;28;20394;-66
2024/04/06 05:22:09;;;;;;;0.88;0.75;;;;;;;13.21;88.16;99785.03;5095862;28;20044;-66
2024/04/06 05:24:36;;;;;;;1.17;1.05;;;;;;;13.26;87.96;99785.84;5113034;28;20040;-66
2024/04/06 05:27:04;;;;;;;1.23;0.85;;;;;;;13.34;88.17;99778.09;5112925;28;20032;-67
2024/04/06 05:29:32;;;;;;;0.57;0.57;;;;;;;13.36;88.21;99769.47;5112845;28;20044;-66
2024/04/06 05:31:59;;;;;;;0.73;0.73;;;;;;;13.40;88.11;99760.91;5112963;28;20031;-66
2024/04/06 05:34:27;;;;;;;1.20;1.10;;;;;;;13.32;87.81;99742.19;5112919;28;20040;-66
2024/04/06 05:36:53;;;;;;;1.75;1.38;;;;;;;13.43;87.70;99768.56;5112673;28;20040;-66
2024/04/06 05:39:21;;;;;;;1.50;1.40;;;;;;;13.50;87.42;99776.19;5112890;28;20051;-65
2024/04/06 05:41:48;;;;;;;0.88;0.88;;;;;;;13.59;87.23;99770.94;5112720;28;20105;-66
2024/04/06 05:44:18;;;;;;;0.90;0.73;;;;;;;13.66;86.67;99782.84;5112738;28;20040;-66
2024/04/06 05:46:44;;;;;;;0.77;0.77;;;;;;;13.73;86.35;99784.47;5112751;28;20043;-66
2024/04/06 05:49:12;;;;;;;0.68;0.68;;;;;;;13.83;86.16;99801.44;5095843;28;20489;-67
2024/04/06 05:51:39;;;;;;;0.60;0.60;;;;;;;13.92;85.96;99791.91;5112513;28;20438;-67
2024/04/06 05:54:07;;;;;;;0.70;0.70;;;;;;;13.91;86.18;99786.81;5113029;28;20048;-66
2024/04/06 05:56:33;;;;;;;1.30;1.08;;;;;;;13.92;86.18;99791.91;5112372;28;20134;-66
2024/04/06 05:59:01;;;;;;;0.75;0.70;;;;;;;13.91;85.76;99805.63;5101815;28;20044;-66
2024/04/06 06:01:29;;;;;;;1.65;0.95;;;;;;;13.91;86.21;99797.09;5075371;28;20074;-66
2024/04/06 06:03:57;;;;;;;0.82;0.82;;;;;;;13.98;86.06;99808.97;5075324;28;20374;-67
2024/04/06 06:06:24;;;;;;;0.63;0.63;;;;;;;14.05;86.60;99814.00;5075286;28;20135;-67
2024/04/06 06:08:53;;;;;;;0.60;0.60;;;;;;;14.20;86.46;99817.25;5092124;28;20036;-66
2024/04/06 06:11:19;;;;;;;2.13;1.55;;;;;;;14.28;86.34;99831.66;5075255;28;20043;-66
2024/04/06 06:13:47;;;;;;;0.60;0.50;;;;;;;14.37;85.90;99831.56;5092345;28;20084;-66
2024/04/06 06:16:13;;;;;;;1.25;1.15;;;;;;;14.48;86.24;99840.00;5092313;28;20044;-66
2024/04/06 06:18:43;;;;;;;0.88;0.77;;;;;;;14.53;85.55;99843.34;5077496;28;20036;-67
2024/04/06 06:21:09;;;;;;;1.95;1.13;;;;;;;14.58;85.82;99841.56;5079021;28;20048;-66
2024/04/06 06:23:37;;;;;;;0.60;0.60;;;;;;;14.70;85.84;99854.25;5095880;28;20126;-66
2024/04/06 06:26:04;;;;;;;5.20;1.48;;;;;;;14.81;85.60;99863.47;5078760;28;20093;-66
2024/04/06 06:28:32;;;;;;;1.20;0.93;;;;;;;14.85;85.52;99858.31;5078497;28;20395;-66
2024/04/06 06:31:00;;;;;;;0.85;0.85;;;;;;;14.83;84.99;99851.47;5096135;28;20081;-67
2024/04/06 06:33:28;;;;;;;1.80;1.33;;;;;;;14.95;84.93;99869.28;5078684;28;20072;-66
2024/04/06 06:35:56;;;;;;;0.63;0.63;;;;;;;15.02;84.44;99858.03;5095636;28;20043;-67
2024/04/06 06:38:24;;;;;;;1.00;0.90;;;;;;;15.08;83.46;99857.94;5078528;28;20047;-66
2024/04/06 06:40:51;;;;;;;1.17;1.08;;;;;;;15.29;83.60;99860.13;5095433;28;20490;-66
2024/04/06 06:43:20;;;;;;;0.65;0.65;;;;;;;15.52;82.65;99865.78;5095380;28;20165;-66
2024/04/06 06:45:47;;;;;;;0.50;0.50;;;;;;;15.59;82.25;99864.78;5095477;28;20059;-66
2024/04/06 06:48:15;;;;;;;0.88;0.88;;;;;;;15.66;81.76;99873.25;5061626;28;20044;-66
2024/04/06 06:50:42;;;;;;;1.13;0.88;;;;;;;15.61;81.37;99875.06;5078154;28;20567;-66
2024/04/06 06:53:11;;;;;;;1.45;1.33;;;;;;;15.66;81.29;99861.22;5095583;28;20090;-67
2024/04/06 06:55:38;;;;;;;0.85;0.85;;;;;;;15.75;80.97;99858.47;5095187;28;20051;-65
2024/04/06 06:58:06;;;;;;;0.98;0.95;;;;;;;15.86;81.23;99851.41;5077849;28;20044;-66
2024/04/06 07:00:33;;;;;;;2.97;1.55;;;;;;;15.87;81.04;99850.53;5094975;28;20506;-66
2024/04/06 07:03:00;;;;;;;1.35;0.93;;;;;;;15.97;80.75;99849.47;5077965;28;20043;-66
2024/04/06 07:05:27;;;;;;;0.65;0.65;;;;;;;16.03;80.07;99849.34;5095261;28;20093;-66
2024/04/06 07:07:55;;;;;;;0.73;0.73;;;;;;;16.05;79.92;99841.59;5078598;28;20036;-66
2024/04/06 07:10:23;;;;;;;2.42;1.15;;;;;;;16.13;79.59;99849.16;5094904;28;20051;-66
2024/04/06 07:12:51;;;;;;;8.63;1.15;;;;;;;16.21;79.39;99836.97;5094579;28;20449;-66
2024/04/06 07:15:18;;;;;;;1.45;0.93;;;;;;;16.26;78.81;99845.44;5078048;28;20028;-66
2024/04/06 07:17:46;;;;;;;1.83;1.30;;;;;;;16.22;78.86;99833.53;5077847;28;20040;-67
2024/04/06 07:20:12;;;;;;;0.65;0.65;;;;;;;16.28;78.94;99843.69;5094402;28;20052;-66
2024/04/06 07:22:41;;;;;;;1.65;0.98;;;;;;;16.24;78.45;99849.78;5077146;28;20037;-66
2024/04/06 07:25:07;;;;;;;0.73;0.73;;;;;;;16.28;78.13;99854.00;5094676;28;20032;-65
2024/04/06 07:27:37;;;;;;;0.98;0.80;;;;;;;16.36;78.36;99852.09;5094159;28;20066;-66
2024/04/06 07:30:05;;;;;;;0.77;0.77;;;;;;;16.40;78.37;99853.72;5094608;28;20035;-66
2024/04/06 07:32:32;;;;;;;0.60;0.60;;;;;;;16.47;78.92;99856.16;5077085;28;20048;-66
2024/04/06 07:35:00;;;;;;;1.70;1.05;;;;;;;16.56;78.86;99857.69;5077277;28;20040;-66
2024/04/06 07:37:28;;;;;;;2.58;1.40;;;;;;;16.68;78.56;99854.84;5094111;28;20044;-66
2024/04/06 07:39:54;;;;;;;0.85;0.80;;;;;;;16.82;78.48;99863.09;5077215;28;20453;-66
2024/04/06 07:42:22;;;;;;;0.73;0.73;;;;;;;16.91;77.96;99862.06;5094000;28;20058;-66
2024/04/06 07:44:50;;;;;;;0.93;0.90;;;;;;;17.12;78.31;99864.97;5077572;28;20093;-65
2024/04/06 07:47:18;;;;;;;1.45;1.27;;;;;;;17.24;77.87;99841.47;5077227;28;20032;-66
2024/04/06 07:49:44;;;;;;;0.98;0.90;;;;;;;17.57;77.57;99860.41;5094019;28;20040;-66
2024/04/06 07:52:12;;;;;;;1.27;1.17;;;;;;;17.69;76.86;99859.22;5094052;28;20555;-66
2024/04/06 07:54:39;;;;;;;3.45;0.82;;;;;;;17.79;76.58;99865.84;5093885;28;20051;-66
2024/04/06 07:57:07;;;;;;;0.70;0.70;;;;;;;17.87;76.26;99869.94;5094015;28;20032;-66
2024/04/06 07:59:33;;;;;;;1.13;0.93;;;;;;;18.06;75.96;99865.09;5093705;28;20040;-66
2024/04/06 08:02:03;;;;;;;1.92;1.40;;;;;;;18.30;75.83;99864.41;5059910;28;20418;-66
2024/04/06 08:04:29;;;;;;;0.70;0.70;;;;;;;18.55;75.47;99860.22;5093957;28;20093;-66
2024/04/06 08:06:57;;;;;;;0.73;0.73;;;;;;;18.58;74.53;99865.31;5093825;28;20075;-67
2024/04/06 08:09:23;;;;;;;0.50;0.50;;;;;;;18.56;73.39;99861.06;5093386;28;20052;-66
2024/04/06 08:11:51;;;;;;;0.85;0.85;;;;;;;18.50;72.95;99859.50;5093448;28;20394;-67
2024/04/06 08:14:18;;;;;;;1.05;0.98;;;;;;;18.51;72.72;99850.88;5093674;28;20101;-66
2024/04/06 08:16:46;;;;;;;0.75;0.70;;;;;;;18.48;71.93;99848.38;5093311;28;20078;-66
2024/04/06 08:19:13;;;;;;;0.40;0.40;;;;;;;18.53;72.88;99841.31;5093320;28;20048;-66
2024/04/06 08:21:41;;;;;;;0.93;0.90;;;;;;;18.65;73.05;99840.94;5093160;28;20445;-66
2024/04/06 08:24:08;;;;;;;1.92;1.27;;;;;;;18.67;72.42;99853.81;5093484;28;20086;-66
2024/04/06 08:26:37;;;;;;;2.15;0.70;;;;;;;18.74;72.07;99856.19;5076530;28;20047;-66
2024/04/06 08:29:03;;;;;;;2.22;1.20;;;;;;;18.74;72.03;99851.00;5093025;28;20490;-66
2024/04/06 08:31:31;;;;;;;1.17;0.95;;;;;;;18.78;71.77;99845.75;5093205;28;20056;-67
2024/04/06 08:33:58;;;;;;;0.50;0.50;;;;;;;18.87;71.70;99848.03;5093390;28;20482;-66
2024/04/06 08:36:27;;;;;;;0.60;0.60;;;;;;;19.01;71.67;99851.88;5093032;28;20036;-66
2024/04/06 08:38:54;;;;;;;0.65;0.65;;;;;;;19.10;69.84;99848.16;5059756;28;20036;-66
2024/04/06 08:41:25;;;;;;;0.82;0.82;;;;;;;19.15;68.95;99841.06;5092636;28;20512;-66
2024/04/06 08:43:55;;;;;;;0.45;0.45;;;;;;;19.18;68.15;99851.31;5093560;28;20062;-66
2024/04/06 08:46:22;;;;;;;;;;;;;;;19.17;68.65;99847.06;5093480;28;20051;-66
2024/04/06 08:48:50;;;;;;;1.55;0.90;;;;;;;19.07;68.75;99840.50;5076152;28;20010;-67
2024/04/06 08:51:18;;;;;;;3.30;1.58;;;;;;;19.19;68.69;99853.03;5076288;28;20414;-66
2024/04/06 08:53:47;;;;;;;0.47;0.47;;;;;;;19.20;67.69;99855.56;5093009;28;20092;-66
2024/04/06 08:56:16;;;;;;;0.55;0.55;;;;;;;19.26;67.05;99862.28;5092990;28;20044;-67
2024/04/06 08:58:43;;;;;;;0.60;0.60;;;;;;;19.35;67.42;99860.22;5092634;28;20543;-66
2024/04/06 09:01:11;;;;;;;0.70;0.70;;;;;;;19.41;67.22;99869.59;5092570;28;20043;-66
2024/04/06 09:03:37;;;;;;;0.40;0.40;;;;;;;19.43;67.12;99867.78;5075759;28;20071;-66
2024/04/06 09:06:15;;;;;;;0.82;0.80;;;;;;;19.45;67.22;99865.97;5076274;28;20371;-66
2024/04/06 09:08:43;;;;;;;0.70;0.70;;;;;;;19.48;67.33;99871.06;5076069;28;20048;-66
2024/04/06 09:11:13;;;;;;;0.63;0.60;;;;;;;19.50;66.93;99866.66;5092475;28;20040;-66
2024/04/06 09:13:40;;;;;;;0.82;0.70;;;;;;;19.53;66.47;99869.13;5075737;28;20143;-66
2024/04/06 09:16:09;;;;;;;0.73;0.73;;;;;;;19.58;66.17;99872.41;5092528;28;20036;-66
2024/04/06 09:18:38;;;;;;;0.88;0.85;;;;;;;19.69;66.18;99872.91;5092291;28;20445;-66
2024/04/06 09:21:06;;;;;;;1.25;0.90;;;;;;;19.80;65.70;99873.38;5092652;28;20052;-67
2024/04/06 09:23:33;;;;;;;0.50;0.50;;;;;;;20.02;66.09;99878.63;5075514;28;20074;-67
2024/04/06 09:26:01;;;;;;;0.82;0.82;;;;;;;20.21;66.32;99873.63;5092291;28;20036;-67
2024/04/06 09:28:30;;;;;;;0.93;0.55;;;;;;;20.34;65.95;99864.53;5111759;28;20603;-66
2024/04/06 09:30:59;;;;;;;0.45;0.45;;;;;;;20.38;65.30;99863.50;5112964;28;20382;-66
2024/04/06 09:33:27;;;;;;;2.15;1.05;;;;;;;20.36;65.03;99878.28;5095834;28;20044;-66
2024/04/06 09:35:54;;;;;;;1.90;1.25;;;;;;;20.28;64.39;99880.31;5095809;28;20140;-66
2024/04/06 09:38:21;;;;;;;0.50;0.50;;;;;;;20.21;65.11;99884.00;5112814;28;20036;-67
2024/04/06 09:40:49;;;;;;;0.50;0.50;;;;;;;20.30;65.79;99881.94;5112643;28;20043;-66
2024/04/06 09:43:16;;;;;;;0.68;0.68;;;;;;;20.34;65.54;99882.69;5112703;28;20032;-66
2024/04/06 09:45:46;;;;;;;0.40;0.40;;;;;;;20.41;65.20;99884.16;5095882;28;20043;-66
2024/04/06 09:48:13;;;;;;;0.65;0.65;;;;;;;20.45;64.36;99877.94;5112756;28;20043;-66
2024/04/06 09:50:41;;;;;;;1.15;1.05;;;;;;;20.43;64.02;99884.94;5112683;28;20481;-66
2024/04/06 09:53:08;;;;;;;0.85;0.85;;;;;;;20.50;64.24;99888.97;5114147;28;20436;-66
2024/04/06 09:55:39;;;;;;;1.60;0.70;;;;;;;20.43;64.10;99874.56;5116806;28;20516;-67
2024/04/06 09:58:07;;;;;;;1.75;0.80;;;;;;;20.42;64.61;99883.25;5116848;28;20092;-66
2024/04/06 10:00:36;;;;;;;0.70;0.60;;;;;;;20.39;65.26;99876.44;5116685;28;20058;-67
2024/04/06 10:03:05;;;;;;;0.80;0.80;;;;;;;20.38;65.64;99866.09;5099346;28;20067;-66
2024/04/06 10:05:39;;;;;;;0.77;0.77;;;;;;;20.39;66.22;99857.44;5116923;28;20044;-66
2024/04/06 10:08:10;;;;;;;0.70;0.70;;;;;;;20.39;66.46;99849.66;5116544;28;20047;-66
2024/04/06 10:10:45;;;;;;;0.55;0.55;;;;;;;20.32;66.04;99866.34;5116341;28;20043;-66
2024/04/06 10:13:19;;;;;;;0.82;0.77;;;;;;;20.23;65.90;99840.78;5116418;28;20070;-66
2024/04/06 10:15:47;;;;;;;1.00;0.90;;;;;;;20.26;66.78;99830.25;5116522;28;20050;-66
2024/04/06 10:18:16;;;;;;;0.77;0.77;;;;;;;20.43;66.75;99843.44;5115951;28;20036;-66
2024/04/06 10:20:44;;;;;;;;;;;;;;;20.53;66.40;99844.78;5099324;28;20056;-66
2024/04/06 10:23:14;;;;;;;0.57;0.57;;;;;;;20.62;66.05;99823.66;5116149;28;19934;-67
2024/04/06 10:25:41;;;;;;;0.73;0.73;;;;;;;20.84;64.98;99828.84;5116385;28;20120;-66
2024/04/06 10:28:09;;;;;;;2.80;1.50;;;;;;;20.98;64.60;99837.78;5116102;28;20073;-66
2024/04/06 10:30:38;;;;;;;0.77;0.70;;;;;;;20.98;63.70;99832.59;5116125;28;20039;-66
2024/04/06 10:33:05;;;;;;;1.45;0.82;;;;;;;21.08;63.48;99833.09;5116157;28;20053;-66
2024/04/06 10:35:35;;;;;;;1.58;0.90;;;;;;;21.30;62.73;99824.34;5115868;28;20054;-65
2024/04/06 10:38:02;;;;;;;0.50;0.50;;;;;;;21.44;62.54;99826.34;5115988;28;20039;-66
2024/04/06 10:40:34;;;;;;;0.60;0.60;;;;;;;21.46;61.99;99819.34;5098968;28;20028;-66
2024/04/06 10:43:01;;;;;;;0.50;0.50;;;;;;;21.48;60.73;99814.06;5098814;28;20482;-66
2024/04/06 10:45:28;;;;;;;0.50;0.50;;;;;;;21.46;61.34;99813.28;5115872;28;20395;-66
2024/04/06 10:47:55;;;;;;;0.40;0.40;;;;;;;21.48;60.46;99806.28;5115694;28;20096;-66
2024/04/06 10:50:23;;;;;;;0.55;0.55;;;;;;;21.59;60.42;99809.28;5115761;28;20471;-66
2024/04/06 10:52:51;;;;;;;0.70;0.70;;;;;;;21.49;59.61;99788.03;5115382;28;20040;-66
2024/04/06 10:55:20;;;;;;;0.65;0.50;;;;;;;21.62;59.01;99809.16;5098616;28;20100;-65
2024/04/06 10:57:47;;;;;;;0.77;0.77;;;;;;;21.53;58.89;99804.31;5098927;28;20379;-66
2024/04/06 11:00:17;;;;;;;0.43;0.43;;;;;;;21.64;59.42;99812.53;5115550;28;20122;-65
2024/04/06 11:02:44;;;;;;;0.77;0.77;;;;;;;21.78;59.61;99812.75;5115325;28;20036;-65
2024/04/06 11:05:12;;;;;;;0.57;0.57;;;;;;;21.93;58.48;99812.13;5098047;28;20043;-66
2024/04/06 11:07:40;;;;;;;1.58;1.48;;;;;;;22.20;58.32;99813.44;5116202;28;20078;-66
2024/04/06 11:10:10;;;;;;;1.23;1.13;;;;;;;22.32;58.01;99815.47;5115294;28;20051;-66
2024/04/06 11:12:38;;;;;;;0.82;0.75;;;;;;;22.51;58.15;99813.69;5115640;28;20044;-66
2024/04/06 11:15:07;;;;;;;0.82;0.82;;;;;;;22.56;57.15;99803.91;5115272;28;20042;-66
2024/04/06 11:17:34;;;;;;;0.43;0.43;;;;;;;22.38;56.56;99799.59;5115469;28;20047;-66
2024/04/06 11:20:03;;;;;;;0.63;0.63;;;;;;;22.39;56.23;99803.00;5097721;28;20097;-66
2024/04/06 11:22:31;;;;;;;0.47;0.47;;;;;;;22.37;57.87;99805.69;5115074;28;20043;-66
2024/04/06 11:24:59;;;;;;;0.82;0.82;;;;;;;22.32;58.51;99805.06;5115073;28;20046;-66
2024/04/06 11:27:27;;;;;;;0.77;0.77;;;;;;;22.25;58.96;99795.88;5097914;28;20402;-66
2024/04/06 11:29:58;;;;;;;0.35;0.35;;;;;;;22.27;57.36;99794.03;5114937;28;20043;-66
2024/04/06 11:32:24;;;;;;;0.60;0.60;;;;;;;22.28;55.86;99774.94;5114621;28;20044;-66
2024/04/06 11:34:53;;;;;;;0.30;0.30;;;;;;;22.44;54.85;99781.09;5097893;28;20504;-66
2024/04/06 11:37:21;;;;;;;0.45;0.45;;;;;;;22.56;54.17;99785.69;5114645;28;20039;-66